sensor_id;sensor_type;location;lat;lon;timestamp;temperature;humidity
16958;DHT22;8595;52.542;11.974;2022-08-05T00:01:51;24.90;99.90
16958;DHT22;8595;52.542;11.974;2022-08-05T00:04:18;24.90;99.90
16958;DHT22;8595;52.542;11.974;2022-08-05T00:06:46;24.90;99.90
16958;DHT22;8595;52.542;11.974;2022-08-05T00:09:12;24.80;99.90
16958;DHT22;8595;52.542;11.974;2022-08-05T00:11:39;24.70;99.90
16958;DHT22;8595;52.542;11.974;2022-08-05T00:14:06;24.90;99.90
16958;DHT22;8595;52.542;11.974;2022-08-05T00:16:32;25.00;99.90
16958;DHT22;8595;52.542;11.974;2022-08-05T00:18:59;24.80;99.90
16958;DHT22;8595;52.542;11.974;2022-08-05T00:21:25;24.80;99.90
16958;DHT22;8595;52.542;11.974;2022-08-05T00:23:53;24.80;99.90
16958;DHT22;8595;52.542;11.974;2022-08-05T00:26:20;24.60;99.90
16958;DHT22;8595;52.542;11.974;2022-08-05T00:28:48;24.50;99.90
16958;DHT22;8595;52.542;11.974;2022-08-05T00:31:14;24.40;99.90
16958;DHT22;8595;52.542;11.974;2022-08-05T00:33:41;24.30;99.90
16958;DHT22;8595;52.542;11.974;2022-08-05T00:36:08;24.50;99.90
16958;DHT22;8595;52.542;11.974;2022-08-05T00:38:35;24.80;99.90
16958;DHT22;8595;52.542;11.974;2022-08-05T00:41:05;24.70;99.90
16958;DHT22;8595;52.542;11.974;2022-08-05T00:43:32;24.70;99.90
16958;DHT22;8595;52.542;11.974;2022-08-05T00:45:59;24.60;99.90
16958;DHT22;8595;52.542;11.974;2022-08-05T00:48:25;24.60;99.90
16958;DHT22;8595;52.542;11.974;2022-08-05T00:50:52;24.60;99.90
16958;DHT22;8595;52.542;11.974;2022-08-05T00:53:21;24.40;99.90
16958;DHT22;8595;52.542;11.974;2022-08-05T00:55:48;24.40;99.90
16958;DHT22;8595;52.542;11.974;2022-08-05T00:58:16;24.60;99.90
16958;DHT22;8595;52.542;11.974;2022-08-05T01:00:43;24.80;99.90
16958;DHT22;8595;52.542;11.974;2022-08-05T01:03:11;24.90;99.90
16958;DHT22;8595;52.542;11.974;2022-08-05T01:05:38;24.50;99.90
16958;DHT22;8595;52.542;11.974;2022-08-05T01:08:04;24.40;99.90
16958;DHT22;8595;52.542;11.974;2022-08-05T01:10:35;24.40;99.90
16958;DHT22;8595;52.542;11.974;2022-08-05T01:13:07;24.20;99.90
16958;DHT22;8595;52.542;11.974;2022-08-05T01:15:42;24.50;99.90
16958;DHT22;8595;52.542;11.974;2022-08-05T01:18:13;24.70;99.90
16958;DHT22;8595;52.542;11.974;2022-08-05T01:20:50;24.70;99.90
16958;DHT22;8595;52.542;11.974;2022-08-05T01:23:30;24.60;99.90
16958;DHT22;8595;52.542;11.974;2022-08-05T01:26:11;24.60;99.90
16958;DHT22;8595;52.542;11.974;2022-08-05T01:28:44;24.80;99.90
16958;DHT22;8595;52.542;11.974;2022-08-05T01:31:17;24.60;99.90
16958;DHT22;8595;52.542;11.974;2022-08-05T01:33:53;24.60;99.90
16958;DHT22;8595;52.542;11.974;2022-08-05T01:36:23;24.90;99.90
16958;DHT22;8595;52.542;11.974;2022-08-05T01:38:51;24.80;99.90
16958;DHT22;8595;52.542;11.974;2022-08-05T01:41:20;25.00;99.90
16958;DHT22;8595;52.542;11.974;2022-08-05T01:43:50;25.00;99.90
16958;DHT22;8595;52.542;11.974;2022-08-05T01:46:18;25.00;99.90
16958;DHT22;8595;52.542;11.974;2022-08-05T01:48:46;24.80;99.90
16958;DHT22;8595;52.542;11.974;2022-08-05T01:51:16;24.80;99.90
16958;DHT22;8595;52.542;11.974;2022-08-05T01:53:45;24.70;99.90
16958;DHT22;8595;52.542;11.974;2022-08-05T01:56:14;24.50;99.90
16958;DHT22;8595;52.542;11.974;2022-08-05T01:58:42;24.20;99.90
16958;DHT22;8595;52.542;11.974;2022-08-05T02:01:12;23.80;99.90
16958;DHT22;8595;52.542;11.974;2022-08-05T02:03:43;23.90;99.90
16958;DHT22;8595;52.542;11.974;2022-08-05T02:06:13;23.90;99.90
16958;DHT22;8595;52.542;11.974;2022-08-05T02:08:40;23.90;99.90
16958;DHT22;8595;52.542;11.974;2022-08-05T02:11:09;23.90;99.90
16958;DHT22;8595;52.542;11.974;2022-08-05T02:13:41;23.90;99.90
16958;DHT22;8595;52.542;11.974;2022-08-05T02:16:18;23.70;99.90
16958;DHT22;8595;52.542;11.974;2022-08-05T02:18:49;23.60;99.90
16958;DHT22;8595;52.542;11.974;2022-08-05T02:21:20;23.40;99.90
16958;DHT22;8595;52.542;11.974;2022-08-05T02:23:50;23.40;99.90
16958;DHT22;8595;52.542;11.974;2022-08-05T02:26:20;23.40;99.90
16958;DHT22;8595;52.542;11.974;2022-08-05T02:28:49;23.30;99.90
16958;DHT22;8595;52.542;11.974;2022-08-05T02:31:21;23.20;99.90
16958;DHT22;8595;52.542;11.974;2022-08-05T02:33:54;23.40;99.90
16958;DHT22;8595;52.542;11.974;2022-08-05T02:36:22;23.30;99.90
16958;DHT22;8595;52.542;11.974;2022-08-05T02:38:52;23.40;99.90
16958;DHT22;8595;52.542;11.974;2022-08-05T02:41:21;23.40;99.90
16958;DHT22;8595;52.542;11.974;2022-08-05T02:43:50;23.20;99.90
16958;DHT22;8595;52.542;11.974;2022-08-05T02:46:19;23.10;99.90
16958;DHT22;8595;52.542;11.974;2022-08-05T02:48:47;23.20;99.90
16958;DHT22;8595;52.542;11.974;2022-08-05T02:51:14;23.30;99.90
16958;DHT22;8595;52.542;11.974;2022-08-05T02:53:43;23.20;99.90
16958;DHT22;8595;52.542;11.974;2022-08-05T02:56:11;23.10;99.90
16958;DHT22;8595;52.542;11.974;2022-08-05T02:58:38;23.00;99.90
16958;DHT22;8595;52.542;11.974;2022-08-05T03:01:07;22.90;99.90
16958;DHT22;8595;52.542;11.974;2022-08-05T03:03:39;22.70;99.90
16958;DHT22;8595;52.542;11.974;2022-08-05T03:06:07;22.50;99.90
16958;DHT22;8595;52.542;11.974;2022-08-05T03:08:36;22.40;99.90
16958;DHT22;8595;52.542;11.974;2022-08-05T03:11:03;22.40;99.90
16958;DHT22;8595;52.542;11.974;2022-08-05T03:13:30;22.20;99.90
16958;DHT22;8595;52.542;11.974;2022-08-05T03:15:57;22.20;99.90
16958;DHT22;8595;52.542;11.974;2022-08-05T03:18:24;22.20;99.90
16958;DHT22;8595;52.542;11.974;2022-08-05T03:20:52;22.40;99.90
16958;DHT22;8595;52.542;11.974;2022-08-05T03:23:19;22.50;99.90
16958;DHT22;8595;52.542;11.974;2022-08-05T03:25:45;22.50;99.90
16958;DHT22;8595;52.542;11.974;2022-08-05T03:28:12;22.60;99.90
16958;DHT22;8595;52.542;11.974;2022-08-05T03:30:40;22.50;99.90
16958;DHT22;8595;52.542;11.974;2022-08-05T03:33:07;22.70;99.90
16958;DHT22;8595;52.542;11.974;2022-08-05T03:35:34;22.60;99.90
16958;DHT22;8595;52.542;11.974;2022-08-05T03:38:02;22.40;99.90
16958;DHT22;8595;52.542;11.974;2022-08-05T03:40:29;22.40;99.90
16958;DHT22;8595;52.542;11.974;2022-08-05T03:42:55;22.40;99.90
16958;DHT22;8595;52.542;11.974;2022-08-05T03:45:22;22.20;99.90
16958;DHT22;8595;52.542;11.974;2022-08-05T03:47:49;22.20;99.90
16958;DHT22;8595;52.542;11.974;2022-08-05T03:50:16;22.30;99.90
16958;DHT22;8595;52.542;11.974;2022-08-05T03:52:48;22.30;99.90
16958;DHT22;8595;52.542;11.974;2022-08-05T03:55:22;22.40;99.90
16958;DHT22;8595;52.542;11.974;2022-08-05T03:57:51;22.60;99.90
16958;DHT22;8595;52.542;11.974;2022-08-05T04:00:19;22.50;99.90
16958;DHT22;8595;52.542;11.974;2022-08-05T04:02:51;22.40;99.90
16958;DHT22;8595;52.542;11.974;2022-08-05T04:05:20;22.30;99.90
16958;DHT22;8595;52.542;11.974;2022-08-05T04:07:47;22.00;99.90
16958;DHT22;8595;52.542;11.974;2022-08-05T04:10:15;21.90;99.90
16958;DHT22;8595;52.542;11.974;2022-08-05T04:12:45;21.90;99.90
16958;DHT22;8595;52.542;11.974;2022-08-05T04:15:12;21.90;99.90
16958;DHT22;8595;52.542;11.974;2022-08-05T04:17:38;22.00;99.90
16958;DHT22;8595;52.542;11.974;2022-08-05T04:20:06;21.90;99.90
16958;DHT22;8595;52.542;11.974;2022-08-05T04:22:33;21.80;99.90
16958;DHT22;8595;52.542;11.974;2022-08-05T04:24:59;21.80;99.90
16958;DHT22;8595;52.542;11.974;2022-08-05T04:27:26;21.90;99.90
16958;DHT22;8595;52.542;11.974;2022-08-05T04:29:54;22.00;99.90
16958;DHT22;8595;52.542;11.974;2022-08-05T04:32:21;21.80;99.90
16958;DHT22;8595;52.542;11.974;2022-08-05T04:34:47;21.60;99.90
16958;DHT22;8595;52.542;11.974;2022-08-05T04:37:14;21.60;99.90
16958;DHT22;8595;52.542;11.974;2022-08-05T04:39:40;21.70;99.90
16958;DHT22;8595;52.542;11.974;2022-08-05T04:42:08;21.90;99.90
16958;DHT22;8595;52.542;11.974;2022-08-05T04:44:34;21.80;99.90
16958;DHT22;8595;52.542;11.974;2022-08-05T04:47:04;21.70;99.90
16958;DHT22;8595;52.542;11.974;2022-08-05T04:49:31;21.50;99.90
16958;DHT22;8595;52.542;11.974;2022-08-05T04:51:57;21.60;99.90
16958;DHT22;8595;52.542;11.974;2022-08-05T04:54:24;21.50;99.90
16958;DHT22;8595;52.542;11.974;2022-08-05T04:56:51;21.50;99.90
16958;DHT22;8595;52.542;11.974;2022-08-05T04:59:18;21.20;99.90
16958;DHT22;8595;52.542;11.974;2022-08-05T05:01:46;21.00;99.90
16958;DHT22;8595;52.542;11.974;2022-08-05T05:04:14;21.00;99.90
16958;DHT22;8595;52.542;11.974;2022-08-05T05:06:41;21.00;99.90
16958;DHT22;8595;52.542;11.974;2022-08-05T05:09:09;21.00;99.90
16958;DHT22;8595;52.542;11.974;2022-08-05T05:11:35;21.10;99.90
16958;DHT22;8595;52.542;11.974;2022-08-05T05:14:02;21.40;99.90
16958;DHT22;8595;52.542;11.974;2022-08-05T05:16:29;21.30;99.90
16958;DHT22;8595;52.542;11.974;2022-08-05T05:18:55;21.30;99.90
16958;DHT22;8595;52.542;11.974;2022-08-05T05:21:23;21.30;99.90
16958;DHT22;8595;52.542;11.974;2022-08-05T05:23:50;21.30;99.90
16958;DHT22;8595;52.542;11.974;2022-08-05T05:26:17;21.20;99.90
16958;DHT22;8595;52.542;11.974;2022-08-05T05:28:43;21.30;99.90
16958;DHT22;8595;52.542;11.974;2022-08-05T05:31:10;21.40;99.90
16958;DHT22;8595;52.542;11.974;2022-08-05T05:33:37;21.60;99.90
16958;DHT22;8595;52.542;11.974;2022-08-05T05:36:04;21.80;99.90
16958;DHT22;8595;52.542;11.974;2022-08-05T05:38:32;21.80;99.90
16958;DHT22;8595;52.542;11.974;2022-08-05T05:40:59;21.70;99.90
16958;DHT22;8595;52.542;11.974;2022-08-05T05:43:25;21.60;99.90
16958;DHT22;8595;52.542;11.974;2022-08-05T05:45:52;21.40;99.90
16958;DHT22;8595;52.542;11.974;2022-08-05T05:48:18;21.30;99.90
16958;DHT22;8595;52.542;11.974;2022-08-05T05:50:45;21.20;99.90
16958;DHT22;8595;52.542;11.974;2022-08-05T05:53:12;21.00;99.90
16958;DHT22;8595;52.542;11.974;2022-08-05T05:55:41;20.90;99.90
16958;DHT22;8595;52.542;11.974;2022-08-05T05:58:09;20.90;99.90
16958;DHT22;8595;52.542;11.974;2022-08-05T06:00:36;20.70;99.90
16958;DHT22;8595;52.542;11.974;2022-08-05T06:03:03;20.60;99.90
16958;DHT22;8595;52.542;11.974;2022-08-05T06:05:29;20.60;99.90
16958;DHT22;8595;52.542;11.974;2022-08-05T06:07:56;20.60;99.90
16958;DHT22;8595;52.542;11.974;2022-08-05T06:10:23;20.70;99.90
16958;DHT22;8595;52.542;11.974;2022-08-05T06:12:54;20.70;99.90
16958;DHT22;8595;52.542;11.974;2022-08-05T06:15:21;20.70;99.90
16958;DHT22;8595;52.542;11.974;2022-08-05T06:17:48;20.90;99.90
16958;DHT22;8595;52.542;11.974;2022-08-05T06:20:15;20.90;99.90
16958;DHT22;8595;52.542;11.974;2022-08-05T06:22:44;20.90;99.90
16958;DHT22;8595;52.542;11.974;2022-08-05T06:25:11;21.10;99.90
16958;DHT22;8595;52.542;11.974;2022-08-05T06:27:38;21.40;99.90
16958;DHT22;8595;52.542;11.974;2022-08-05T06:30:09;21.50;99.90
16958;DHT22;8595;52.542;11.974;2022-08-05T06:32:40;21.80;99.90
16958;DHT22;8595;52.542;11.974;2022-08-05T06:35:08;22.00;99.90
16958;DHT22;8595;52.542;11.974;2022-08-05T06:37:36;22.10;99.90
16958;DHT22;8595;52.542;11.974;2022-08-05T06:40:04;22.30;99.90
16958;DHT22;8595;52.542;11.974;2022-08-05T06:42:32;22.40;99.90
16958;DHT22;8595;52.542;11.974;2022-08-05T06:44:58;22.60;99.90
16958;DHT22;8595;52.542;11.974;2022-08-05T06:47:27;22.50;99.90
16958;DHT22;8595;52.542;11.974;2022-08-05T06:49:56;22.50;99.90
16958;DHT22;8595;52.542;11.974;2022-08-05T06:52:26;22.60;99.90
16958;DHT22;8595;52.542;11.974;2022-08-05T06:54:54;22.90;99.90
16958;DHT22;8595;52.542;11.974;2022-08-05T06:57:20;23.00;99.90
16958;DHT22;8595;52.542;11.974;2022-08-05T06:59:48;23.20;99.90
16958;DHT22;8595;52.542;11.974;2022-08-05T07:02:14;23.20;99.90
16958;DHT22;8595;52.542;11.974;2022-08-05T07:04:43;23.30;99.90
16958;DHT22;8595;52.542;11.974;2022-08-05T07:07:11;23.40;99.90
16958;DHT22;8595;52.542;11.974;2022-08-05T07:09:38;23.60;99.90
16958;DHT22;8595;52.542;11.974;2022-08-05T07:12:09;23.70;99.90
16958;DHT22;8595;52.542;11.974;2022-08-05T07:14:56;23.90;99.90
16958;DHT22;8595;52.542;11.974;2022-08-05T07:17:42;23.90;99.90
16958;DHT22;8595;52.542;11.974;2022-08-05T07:20:11;24.00;99.90
16958;DHT22;8595;52.542;11.974;2022-08-05T07:22:38;24.10;99.90
16958;DHT22;8595;52.542;11.974;2022-08-05T07:25:06;24.10;99.90
16958;DHT22;8595;52.542;11.974;2022-08-05T07:27:36;24.00;99.90
16958;DHT22;8595;52.542;11.974;2022-08-05T07:30:05;24.00;99.90
16958;DHT22;8595;52.542;11.974;2022-08-05T07:32:34;23.90;99.90
16958;DHT22;8595;52.542;11.974;2022-08-05T07:35:08;23.80;99.90
16958;DHT22;8595;52.542;11.974;2022-08-05T07:37:37;23.80;99.90
16958;DHT22;8595;52.542;11.974;2022-08-05T07:40:06;23.70;99.90
16958;DHT22;8595;52.542;11.974;2022-08-05T07:42:33;23.60;99.90
16958;DHT22;8595;52.542;11.974;2022-08-05T07:45:03;23.60;99.90
16958;DHT22;8595;52.542;11.974;2022-08-05T07:47:30;23.50;99.90
16958;DHT22;8595;52.542;11.974;2022-08-05T07:49:57;23.40;99.90
16958;DHT22;8595;52.542;11.974;2022-08-05T07:52:27;23.20;99.90
16958;DHT22;8595;52.542;11.974;2022-08-05T07:54:56;23.00;99.90
16958;DHT22;8595;52.542;11.974;2022-08-05T07:57:24;23.00;99.90
16958;DHT22;8595;52.542;11.974;2022-08-05T07:59:51;23.10;99.90
16958;DHT22;8595;52.542;11.974;2022-08-05T08:02:23;23.00;99.90
16958;DHT22;8595;52.542;11.974;2022-08-05T08:04:51;23.00;99.90
16958;DHT22;8595;52.542;11.974;2022-08-05T08:07:19;23.00;99.90
16958;DHT22;8595;52.542;11.974;2022-08-05T08:09:47;23.00;99.90
16958;DHT22;8595;52.542;11.974;2022-08-05T08:12:15;23.00;99.90
16958;DHT22;8595;52.542;11.974;2022-08-05T08:14:43;23.10;99.90
16958;DHT22;8595;52.542;11.974;2022-08-05T08:17:15;23.20;99.90
16958;DHT22;8595;52.542;11.974;2022-08-05T08:19:43;23.00;99.90
16958;DHT22;8595;52.542;11.974;2022-08-05T08:22:12;22.90;99.90
16958;DHT22;8595;52.542;11.974;2022-08-05T08:24:43;22.90;99.90
16958;DHT22;8595;52.542;11.974;2022-08-05T08:27:10;22.80;99.90
16958;DHT22;8595;52.542;11.974;2022-08-05T08:29:39;22.80;99.90
16958;DHT22;8595;52.542;11.974;2022-08-05T08:32:07;23.00;99.90
16958;DHT22;8595;52.542;11.974;2022-08-05T08:34:34;23.20;99.90
16958;DHT22;8595;52.542;11.974;2022-08-05T08:37:02;23.40;99.90
16958;DHT22;8595;52.542;11.974;2022-08-05T08:39:29;23.40;99.90
16958;DHT22;8595;52.542;11.974;2022-08-05T08:41:58;23.50;99.90
16958;DHT22;8595;52.542;11.974;2022-08-05T08:44:29;23.40;99.90
16958;DHT22;8595;52.542;11.974;2022-08-05T08:46:59;23.40;99.90
16958;DHT22;8595;52.542;11.974;2022-08-05T08:49:31;23.50;99.90
16958;DHT22;8595;52.542;11.974;2022-08-05T08:52:07;23.70;99.90
16958;DHT22;8595;52.542;11.974;2022-08-05T08:54:38;24.00;99.90
16958;DHT22;8595;52.542;11.974;2022-08-05T08:57:05;24.10;99.90
16958;DHT22;8595;52.542;11.974;2022-08-05T08:59:33;24.20;99.90
16958;DHT22;8595;52.542;11.974;2022-08-05T09:02:05;24.30;99.90
16958;DHT22;8595;52.542;11.974;2022-08-05T09:04:33;24.70;99.90
16958;DHT22;8595;52.542;11.974;2022-08-05T09:07:04;24.70;99.90
16958;DHT22;8595;52.542;11.974;2022-08-05T09:09:35;24.80;99.90
16958;DHT22;8595;52.542;11.974;2022-08-05T09:12:03;25.00;99.90
16958;DHT22;8595;52.542;11.974;2022-08-05T09:14:32;25.20;99.90
16958;DHT22;8595;52.542;11.974;2022-08-05T09:16:59;25.60;99.90
16958;DHT22;8595;52.542;11.974;2022-08-05T09:19:28;25.80;99.90
16958;DHT22;8595;52.542;11.974;2022-08-05T09:21:57;26.00;99.90
16958;DHT22;8595;52.542;11.974;2022-08-05T09:24:24;26.10;99.90
16958;DHT22;8595;52.542;11.974;2022-08-05T09:26:52;26.00;99.90
16958;DHT22;8595;52.542;11.974;2022-08-05T09:29:20;25.70;99.90
16958;DHT22;8595;52.542;11.974;2022-08-05T09:32:00;25.70;99.90
16958;DHT22;8595;52.542;11.974;2022-08-05T09:34:45;26.30;99.90
16958;DHT22;8595;52.542;11.974;2022-08-05T09:37:16;27.70;99.90
16958;DHT22;8595;52.542;11.974;2022-08-05T09:39:43;28.40;99.90
16958;DHT22;8595;52.542;11.974;2022-08-05T09:42:11;29.30;99.90
16958;DHT22;8595;52.542;11.974;2022-08-05T09:44:41;29.60;99.90
16958;DHT22;8595;52.542;11.974;2022-08-05T09:47:09;30.10;99.90
16958;DHT22;8595;52.542;11.974;2022-08-05T09:49:43;30.40;99.90
16958;DHT22;8595;52.542;11.974;2022-08-05T09:52:23;30.50;99.90
16958;DHT22;8595;52.542;11.974;2022-08-05T09:54:53;30.60;99.90
16958;DHT22;8595;52.542;11.974;2022-08-05T09:57:34;30.90;99.90
16958;DHT22;8595;52.542;11.974;2022-08-05T10:00:08;31.60;99.90
16958;DHT22;8595;52.542;11.974;2022-08-05T10:02:39;32.40;99.90
16958;DHT22;8595;52.542;11.974;2022-08-05T10:05:14;32.70;99.90
16958;DHT22;8595;52.542;11.974;2022-08-05T10:07:48;32.70;99.90
16958;DHT22;8595;52.542;11.974;2022-08-05T10:10:17;32.10;99.90
16958;DHT22;8595;52.542;11.974;2022-08-05T10:12:48;31.80;99.90
16958;DHT22;8595;52.542;11.974;2022-08-05T10:15:19;31.40;99.90
16958;DHT22;8595;52.542;11.974;2022-08-05T10:18:11;31.00;99.90
16958;DHT22;8595;52.542;11.974;2022-08-05T10:20:44;30.10;99.90
16958;DHT22;8595;52.542;11.974;2022-08-05T10:23:14;29.30;99.90
16958;DHT22;8595;52.542;11.974;2022-08-05T10:25:41;28.90;99.90
16958;DHT22;8595;52.542;11.974;2022-08-05T10:28:08;28.40;99.90
16958;DHT22;8595;52.542;11.974;2022-08-05T10:30:37;28.00;99.90
16958;DHT22;8595;52.542;11.974;2022-08-05T10:33:16;27.70;99.90
16958;DHT22;8595;52.542;11.974;2022-08-05T10:35:44;27.20;99.90
16958;DHT22;8595;52.542;11.974;2022-08-05T10:38:20;26.90;99.90
16958;DHT22;8595;52.542;11.974;2022-08-05T10:40:55;27.00;99.90
16958;DHT22;8595;52.542;11.974;2022-08-05T10:43:35;26.40;99.90
16958;DHT22;8595;52.542;11.974;2022-08-05T10:46:07;26.00;99.90
16958;DHT22;8595;52.542;11.974;2022-08-05T10:48:36;26.40;99.90
16958;DHT22;8595;52.542;11.974;2022-08-05T10:51:07;26.60;99.90
16958;DHT22;8595;52.542;11.974;2022-08-05T10:53:37;26.60;99.90
16958;DHT22;8595;52.542;11.974;2022-08-05T10:56:10;26.70;99.90
16958;DHT22;8595;52.542;11.974;2022-08-05T10:58:48;27.70;99.90
16958;DHT22;8595;52.542;11.974;2022-08-05T11:01:15;28.30;99.90
16958;DHT22;8595;52.542;11.974;2022-08-05T11:04:02;28.80;99.90
16958;DHT22;8595;52.542;11.974;2022-08-05T11:06:31;28.60;99.90
16958;DHT22;8595;52.542;11.974;2022-08-05T11:09:17;29.20;99.90
16958;DHT22;8595;52.542;11.974;2022-08-05T11:11:46;29.60;99.90
16958;DHT22;8595;52.542;11.974;2022-08-05T11:14:23;29.40;99.90
16958;DHT22;8595;52.542;11.974;2022-08-05T11:19:56;29.00;99.90
16958;DHT22;8595;52.542;11.974;2022-08-05T11:22:40;29.40;99.90
16958;DHT22;8595;52.542;11.974;2022-08-05T11:25:30;28.30;99.90
16958;DHT22;8595;52.542;11.974;2022-08-05T11:28:35;27.90;99.90
16958;DHT22;8595;52.542;11.974;2022-08-05T11:31:25;27.70;99.90
16958;DHT22;8595;52.542;11.974;2022-08-05T11:34:05;27.20;99.90
16958;DHT22;8595;52.542;11.974;2022-08-05T11:36:47;26.70;99.90
16958;DHT22;8595;52.542;11.974;2022-08-05T11:41:59;26.80;99.90
16958;DHT22;8595;52.542;11.974;2022-08-05T11:44:36;27.10;99.90
16958;DHT22;8595;52.542;11.974;2022-08-05T11:47:05;27.10;99.90
16958;DHT22;8595;52.542;11.974;2022-08-05T11:49:32;27.10;99.90
16958;DHT22;8595;52.542;11.974;2022-08-05T11:51:59;26.60;99.90
16958;DHT22;8595;52.542;11.974;2022-08-05T11:54:29;26.40;99.90
16958;DHT22;8595;52.542;11.974;2022-08-05T11:56:59;26.50;99.90
16958;DHT22;8595;52.542;11.974;2022-08-05T11:59:28;26.50;99.90
16958;DHT22;8595;52.542;11.974;2022-08-05T12:01:57;26.60;99.90
16958;DHT22;8595;52.542;11.974;2022-08-05T12:04:26;26.70;99.90
16958;DHT22;8595;52.542;11.974;2022-08-05T12:06:54;26.80;99.90
16958;DHT22;8595;52.542;11.974;2022-08-05T12:09:26;26.70;99.90
16958;DHT22;8595;52.542;11.974;2022-08-05T12:11:55;27.10;99.90
16958;DHT22;8595;52.542;11.974;2022-08-05T12:14:21;27.90;99.90
16958;DHT22;8595;52.542;11.974;2022-08-05T12:16:50;27.90;99.90
16958;DHT22;8595;52.542;11.974;2022-08-05T12:19:17;28.40;99.90
16958;DHT22;8595;52.542;11.974;2022-08-05T12:21:49;28.40;99.90
16958;DHT22;8595;52.542;11.974;2022-08-05T12:24:17;27.90;99.90
16958;DHT22;8595;52.542;11.974;2022-08-05T12:26:48;28.70;99.90
16958;DHT22;8595;52.542;11.974;2022-08-05T12:29:16;28.80;99.90
16958;DHT22;8595;52.542;11.974;2022-08-05T12:31:46;28.40;99.90
16958;DHT22;8595;52.542;11.974;2022-08-05T12:34:14;28.00;99.90
16958;DHT22;8595;52.542;11.974;2022-08-05T12:36:41;28.10;99.90
16958;DHT22;8595;52.542;11.974;2022-08-05T12:39:09;28.40;99.90
16958;DHT22;8595;52.542;11.974;2022-08-05T12:41:37;28.40;99.90
16958;DHT22;8595;52.542;11.974;2022-08-05T12:44:08;28.50;99.90
16958;DHT22;8595;52.542;11.974;2022-08-05T12:46:40;29.00;99.90
16958;DHT22;8595;52.542;11.974;2022-08-05T12:49:09;28.80;99.90
16958;DHT22;8595;52.542;11.974;2022-08-05T12:51:43;28.60;99.90
16958;DHT22;8595;52.542;11.974;2022-08-05T12:54:10;28.20;99.90
16958;DHT22;8595;52.542;11.974;2022-08-05T12:56:40;28.30;99.90
16958;DHT22;8595;52.542;11.974;2022-08-05T12:59:14;28.10;99.90
16958;DHT22;8595;52.542;11.974;2022-08-05T13:01:43;27.70;99.90
16958;DHT22;8595;52.542;11.974;2022-08-05T13:04:15;27.40;99.90
16958;DHT22;8595;52.542;11.974;2022-08-05T13:06:43;27.30;99.90
16958;DHT22;8595;52.542;11.974;2022-08-05T13:09:12;27.30;99.90
16958;DHT22;8595;52.542;11.974;2022-08-05T13:11:41;27.30;99.90
16958;DHT22;8595;52.542;11.974;2022-08-05T13:14:20;27.00;99.90
16958;DHT22;8595;52.542;11.974;2022-08-05T13:16:53;26.90;99.90
16958;DHT22;8595;52.542;11.974;2022-08-05T13:19:22;26.70;99.90
16958;DHT22;8595;52.542;11.974;2022-08-05T13:21:50;26.60;99.90
16958;DHT22;8595;52.542;11.974;2022-08-05T13:24:18;26.70;99.90
16958;DHT22;8595;52.542;11.974;2022-08-05T13:26:46;26.50;99.90
16958;DHT22;8595;52.542;11.974;2022-08-05T13:29:16;26.50;99.90
16958;DHT22;8595;52.542;11.974;2022-08-05T13:31:46;25.90;99.90
16958;DHT22;8595;52.542;11.974;2022-08-05T13:34:13;25.90;99.90
16958;DHT22;8595;52.542;11.974;2022-08-05T13:36:41;25.90;99.90
16958;DHT22;8595;52.542;11.974;2022-08-05T13:39:10;25.70;99.90
16958;DHT22;8595;52.542;11.974;2022-08-05T13:41:38;25.60;99.90
16958;DHT22;8595;52.542;11.974;2022-08-05T13:44:05;25.50;99.90
16958;DHT22;8595;52.542;11.974;2022-08-05T13:46:34;25.40;99.90
16958;DHT22;8595;52.542;11.974;2022-08-05T13:49:04;25.20;99.90
16958;DHT22;8595;52.542;11.974;2022-08-05T13:51:32;25.10;99.90
16958;DHT22;8595;52.542;11.974;2022-08-05T13:53:59;25.00;99.90
16958;DHT22;8595;52.542;11.974;2022-08-05T13:56:26;24.90;99.90
16958;DHT22;8595;52.542;11.974;2022-08-05T13:58:53;25.00;99.90
16958;DHT22;8595;52.542;11.974;2022-08-05T14:01:22;24.90;99.90
16958;DHT22;8595;52.542;11.974;2022-08-05T14:03:50;24.60;99.90
16958;DHT22;8595;52.542;11.974;2022-08-05T14:06:35;24.40;99.90
16958;DHT22;8595;52.542;11.974;2022-08-05T14:09:03;24.20;99.90
16958;DHT22;8595;52.542;11.974;2022-08-05T14:11:32;24.10;99.90
16958;DHT22;8595;52.542;11.974;2022-08-05T14:13:59;23.70;99.90
16958;DHT22;8595;52.542;11.974;2022-08-05T14:16:26;23.10;99.90
16958;DHT22;8595;52.542;11.974;2022-08-05T14:18:56;22.70;99.90
16958;DHT22;8595;52.542;11.974;2022-08-05T14:21:24;22.40;99.90
16958;DHT22;8595;52.542;11.974;2022-08-05T14:23:52;22.50;99.90
16958;DHT22;8595;52.542;11.974;2022-08-05T14:26:20;22.30;99.90
16958;DHT22;8595;52.542;11.974;2022-08-05T14:28:49;21.90;99.90
16958;DHT22;8595;52.542;11.974;2022-08-05T14:31:15;21.90;99.90
16958;DHT22;8595;52.542;11.974;2022-08-05T14:33:42;21.70;99.90
16958;DHT22;8595;52.542;11.974;2022-08-05T14:36:12;22.00;99.90
16958;DHT22;8595;52.542;11.974;2022-08-05T14:38:38;22.10;99.90
16958;DHT22;8595;52.542;11.974;2022-08-05T14:41:06;22.00;99.90
16958;DHT22;8595;52.542;11.974;2022-08-05T14:43:34;21.90;99.90
16958;DHT22;8595;52.542;11.974;2022-08-05T14:46:01;22.10;99.90
16958;DHT22;8595;52.542;11.974;2022-08-05T14:48:29;21.90;99.90
16958;DHT22;8595;52.542;11.974;2022-08-05T14:50:57;21.70;99.90
16958;DHT22;8595;52.542;11.974;2022-08-05T14:53:34;22.10;99.90
16958;DHT22;8595;52.542;11.974;2022-08-05T14:56:03;22.30;99.90
16958;DHT22;8595;52.542;11.974;2022-08-05T14:58:30;22.50;99.90
16958;DHT22;8595;52.542;11.974;2022-08-05T15:00:58;22.30;99.90
16958;DHT22;8595;52.542;11.974;2022-08-05T15:03:27;22.40;99.90
16958;DHT22;8595;52.542;11.974;2022-08-05T15:05:55;22.50;99.90
16958;DHT22;8595;52.542;11.974;2022-08-05T15:08:28;22.40;99.90
16958;DHT22;8595;52.542;11.974;2022-08-05T15:10:56;22.10;99.90
16958;DHT22;8595;52.542;11.974;2022-08-05T15:13:25;22.10;99.90
16958;DHT22;8595;52.542;11.974;2022-08-05T15:15:53;22.10;99.90
16958;DHT22;8595;52.542;11.974;2022-08-05T15:18:20;22.00;99.90
16958;DHT22;8595;52.542;11.974;2022-08-05T15:20:49;21.80;99.90
16958;DHT22;8595;52.542;11.974;2022-08-05T15:23:17;21.60;99.90
16958;DHT22;8595;52.542;11.974;2022-08-05T15:25:44;21.60;99.90
16958;DHT22;8595;52.542;11.974;2022-08-05T15:28:13;21.50;99.90
16958;DHT22;8595;52.542;11.974;2022-08-05T15:30:44;21.40;99.90
16958;DHT22;8595;52.542;11.974;2022-08-05T15:33:13;21.20;99.90
16958;DHT22;8595;52.542;11.974;2022-08-05T15:35:43;21.10;99.90
16958;DHT22;8595;52.542;11.974;2022-08-05T15:38:10;21.20;99.90
16958;DHT22;8595;52.542;11.974;2022-08-05T15:40:37;21.30;99.90
16958;DHT22;8595;52.542;11.974;2022-08-05T15:43:04;21.20;99.90
16958;DHT22;8595;52.542;11.974;2022-08-05T15:45:33;21.00;99.90
16958;DHT22;8595;52.542;11.974;2022-08-05T15:48:01;20.80;99.90
16958;DHT22;8595;52.542;11.974;2022-08-05T15:50:29;20.80;99.90